Time;durP1;ratioP1;P1;durP2;ratioP2;P2;SDS_P1;SDS_P2;PMS_P1;PMS_P2;Temp;Humidity;BMP_temperature;BMP_pressure;BME280_temperature;BME280_humidity;BME280_pressure;Samples;Min_cycle;Max_cycle;Signal;HPM_P1;HPM_P2
2022/09/09 00:00:29;;;;;;;7.00;1.17;;;;;;;14.68;100.00;99096.91;5010919;28;20034;-71
2022/09/09 00:03:23;;;;;;;5.70;1.27;;;;;;;14.70;100.00;99100.13;5021932;28;20026;-72
2022/09/09 00:05:53;;;;;;;6.28;1.52;;;;;;;14.69;100.00;99104.03;5000083;28;20395;-73
2022/09/09 00:08:22;;;;;;;4.70;1.08;;;;;;;14.68;100.00;99102.41;5002227;28;20030;-71
2022/09/09 00:10:58;;;;;;;7.10;1.10;;;;;;;14.66;100.00;99099.19;5011614;28;20121;-71
2022/09/09 00:13:47;;;;;;;5.03;1.40;;;;;;;14.62;100.00;99081.69;5011520;28;20034;-73
2022/09/09 00:16:22;;;;;;;2.22;1.13;;;;;;;14.63;100.00;99088.81;5012956;28;20030;-71
2022/09/09 00:19:28;;;;;;;2.08;1.00;;;;;;;14.68;100.00;99099.66;5011743;28;20068;-71
2022/09/09 00:22:02;;;;;;;3.10;1.25;;;;;;;14.69;100.00;99101.28;4977900;28;20057;-70
2022/09/09 00:24:38;;;;;;;2.83;1.10;;;;;;;14.64;100.00;99095.94;5007508;28;20037;-69
2022/09/09 00:27:37;;;;;;;4.43;1.23;;;;;;;14.55;100.00;99103.34;5007852;28;20040;-72
2022/09/09 00:30:22;;;;;;;3.35;1.27;;;;;;;14.52;100.00;99099.31;5003185;28;20469;-71
2022/09/09 00:33:11;;;;;;;4.97;1.35;;;;;;;14.48;100.00;99104.66;5019543;28;20034;-75
2022/09/09 00:35:39;;;;;;;5.03;1.20;;;;;;;14.42;100.00;99091.38;5003831;28;20076;-70
2022/09/09 00:38:13;;;;;;;4.18;1.50;;;;;;;14.36;100.00;99087.19;5013673;28;20053;-70
2022/09/09 00:40:49;;;;;;;5.13;1.63;;;;;;;14.31;100.00;99093.66;5009263;28;20038;-70
2022/09/09 00:43:25;;;;;;;9.02;1.77;;;;;;;14.29;100.00;99101.41;5019044;28;20056;-70
2022/09/09 00:45:54;;;;;;;4.65;1.50;;;;;;;14.28;100.00;99099.78;5011188;28;23191;-71
2022/09/09 00:48:27;;;;;;;3.70;1.40;;;;;;;14.28;100.00;99097.88;5007945;28;20033;-70
2022/09/09 00:51:00;;;;;;;3.53;1.53;;;;;;;14.33;100.00;99102.38;5007835;28;20034;-71
2022/09/09 00:53:31;;;;;;;3.88;1.35;;;;;;;14.40;100.00;99113.72;5000087;28;20456;-70
2022/09/09 00:56:16;;;;;;;5.20;1.42;;;;;;;14.42;100.00;99122.44;5001869;28;20109;-69
2022/09/09 00:59:07;;;;;;;3.47;1.80;;;;;;;14.46;100.00;99117.91;5012522;28;20037;-70
2022/09/09 01:01:32;;;;;;;3.08;1.35;;;;;;;14.51;100.00;99121.63;4997765;28;20480;-71
2022/09/09 01:03:59;;;;;;;8.80;1.85;;;;;;;14.53;100.00;99122.94;4996427;28;20033;-71
2022/09/09 01:06:32;;;;;;;3.75;1.63;;;;;;;14.56;100.00;99118.72;5002961;28;20028;-71
2022/09/09 01:09:17;;;;;;;4.13;1.83;;;;;;;14.57;100.00;99123.91;5006174;28;20058;-72
2022/09/09 01:11:51;;;;;;;7.10;2.08;;;;;;;14.59;100.00;99121.63;4999288;28;20492;-70
2022/09/09 01:14:32;;;;;;;4.05;1.98;;;;;;;14.60;100.00;99122.44;5011098;28;20056;-71
2022/09/09 01:17:10;;;;;;;9.38;3.42;;;;;;;14.59;100.00;99123.59;5008228;28;20145;-71
2022/09/09 01:19:42;;;;;;;4.13;2.00;;;;;;;14.56;100.00;99130.53;5011644;28;20755;-71
2022/09/09 01:22:26;;;;;;;2.97;1.90;;;;;;;14.55;100.00;99131.66;5002019;28;20058;-71
2022/09/09 01:25:13;;;;;;;9.43;2.28;;;;;;;14.60;100.00;99141.69;4998413;28;20116;-71
2022/09/09 01:27:44;;;;;;;6.68;2.67;;;;;;;14.57;100.00;99134.09;5009438;28;20387;-70
2022/09/09 01:30:12;;;;;;;4.82;2.50;;;;;;;14.63;100.00;99138.31;4999451;28;20079;-72
2022/09/09 01:32:48;;;;;;;6.10;2.30;;;;;;;14.63;100.00;99141.06;5009332;28;20842;-70
2022/09/09 01:35:38;;;;;;;2.78;1.80;;;;;;;14.64;100.00;99131.69;5002156;28;20038;-71
2022/09/09 01:38:04;;;;;;;4.40;1.95;;;;;;;14.68;100.00;99146.41;5009335;28;20024;-71
2022/09/09 01:40:30;;;;;;;4.40;2.40;;;;;;;14.64;100.00;99134.44;5004780;28;20131;-71
2022/09/09 01:42:56;;;;;;;6.65;2.97;;;;;;;14.68;100.00;99142.88;5006455;28;20494;-71
2022/09/09 01:45:23;;;;;;;7.97;2.35;;;;;;;14.65;100.00;99147.06;4996494;28;20030;-70
2022/09/09 01:47:49;;;;;;;6.95;2.38;;;;;;;14.66;100.00;99154.19;4990864;28;20132;-73
2022/09/09 01:50:16;;;;;;;5.28;2.70;;;;;;;14.65;100.00;99153.38;4998262;28;20133;-71
2022/09/09 01:52:43;;;;;;;7.20;2.30;;;;;;;14.65;100.00;99158.88;4967746;28;20046;-71
2022/09/09 01:55:10;;;;;;;5.93;2.90;;;;;;;14.59;100.00;99153.84;4995154;28;20038;-71
2022/09/09 01:58:17;;;;;;;3.67;2.33;;;;;;;14.55;100.00;99167.44;4970207;28;20030;-71
2022/09/09 02:00:54;;;;;;;7.95;2.53;;;;;;;14.41;100.00;99161.25;4998206;28;20042;-71
2022/09/09 02:03:28;;;;;;;4.78;2.17;;;;;;;14.44;100.00;99163.38;5001270;28;20076;-72
2022/09/09 02:05:53;;;;;;;6.05;2.20;;;;;;;14.47;100.00;99163.53;4991094;28;20089;-72
2022/09/09 02:08:24;;;;;;;6.07;2.13;;;;;;;14.47;100.00;99169.06;5001577;28;20065;-71
2022/09/09 02:11:11;;;;;;;7.13;2.17;;;;;;;14.48;100.00;99175.34;4995792;28;20076;-72
2022/09/09 02:13:38;;;;;;;7.50;2.42;;;;;;;14.39;100.00;99177.28;4989811;28;20030;-70
2022/09/09 02:16:12;;;;;;;5.80;2.72;;;;;;;14.25;100.00;99169.16;4979252;28;20041;-71
2022/09/09 02:19:00;;;;;;;8.05;2.55;;;;;;;14.28;100.00;99183.09;4980171;28;20034;-71
2022/09/09 02:21:28;;;;;;;5.95;2.88;;;;;;;14.28;100.00;99176.78;5008381;28;20034;-71
2022/09/09 02:23:56;;;;;;;4.82;2.28;;;;;;;14.26;100.00;99179.84;5010558;28;20033;-72
2022/09/09 02:26:23;;;;;;;7.32;2.78;;;;;;;14.12;100.00;99169.00;5005922;28;20026;-73
2022/09/09 02:28:50;;;;;;;11.68;2.30;;;;;;;14.01;100.00;99172.38;4987104;28;20112;-72
2022/09/09 02:31:19;;;;;;;6.30;2.60;;;;;;;13.91;100.00;99178.97;4980440;28;20029;-71
2022/09/09 02:33:50;;;;;;;6.05;2.17;;;;;;;13.79;100.00;99174.88;5006120;28;20092;-72
2022/09/09 02:36:17;;;;;;;6.40;2.38;;;;;;;13.76;100.00;99189.25;5001087;28;20025;-72
2022/09/09 02:38:52;;;;;;;4.15;1.95;;;;;;;13.65;100.00;99187.09;5003257;28;20021;-71
2022/09/09 02:41:28;;;;;;;5.05;1.88;;;;;;;13.54;100.00;99192.88;4990810;28;20030;-71
2022/09/09 02:43:54;;;;;;;4.30;2.80;;;;;;;13.56;100.00;99195.31;5007370;28;20036;-70
2022/09/09 02:46:23;;;;;;;4.35;2.63;;;;;;;13.69;100.00;99199.09;4958497;28;20022;-70
2022/09/09 02:48:57;;;;;;;7.28;2.10;;;;;;;13.72;100.00;99202.00;5000209;28;20380;-71
2022/09/09 02:51:43;;;;;;;;;;;;;;;13.85;100.00;99204.97;4998200;28;20062;-70
2022/09/09 02:54:27;;;;;;;5.60;3.13;;;;;;;13.87;100.00;99200.78;4997039;28;19921;-70
2022/09/09 02:56:54;;;;;;;;;;;;;;;13.83;100.00;99205.28;4997539;28;20076;-71
2022/09/09 02:59:21;;;;;;;3.65;2.45;;;;;;;13.81;100.00;99207.53;4976941;28;20006;-70
2022/09/09 03:01:46;;;;;;;7.20;3.38;;;;;;;13.82;100.00;99211.91;4995378;28;20022;-70
2022/09/09 03:04:12;;;;;;;4.10;2.53;;;;;;;13.85;100.00;99204.97;4988165;28;20050;-71
2022/09/09 03:06:38;;;;;;;5.85;2.60;;;;;;;13.90;100.00;99210.31;4998097;28;20047;-70
2022/09/09 03:09:04;;;;;;;5.68;2.67;;;;;;;13.90;100.00;99204.81;5003788;28;20038;-71
2022/09/09 03:11:29;;;;;;;5.18;2.45;;;;;;;13.92;100.00;99213.56;4989790;28;20050;-71
2022/09/09 03:13:55;;;;;;;4.80;2.50;;;;;;;13.89;100.00;99217.75;4997499;28;20029;-70
2022/09/09 03:16:22;;;;;;;3.90;2.60;;;;;;;13.87;100.00;99213.69;5008209;28;20042;-71
2022/09/09 03:18:47;;;;;;;3.28;2.38;;;;;;;13.81;100.00;99214.97;4995400;28;20059;-72
2022/09/09 03:21:14;;;;;;;3.33;2.40;;;;;;;13.82;100.00;99219.34;4973628;28;20026;-70
2022/09/09 03:23:39;;;;;;;2.70;2.45;;;;;;;13.77;100.00;99217.56;4993743;28;20038;-70
2022/09/09 03:26:05;;;;;;;4.82;2.63;;;;;;;13.69;100.00;99216.38;4968878;28;20030;-70
2022/09/09 03:28:31;;;;;;;5.03;2.40;;;;;;;13.63;100.00;99212.16;4974678;28;20037;-70
2022/09/09 03:31:00;;;;;;;4.15;2.15;;;;;;;13.59;100.00;99222.16;4974903;28;20436;-71
2022/09/09 03:33:26;;;;;;;3.30;2.42;;;;;;;13.51;100.00;99214.69;5010248;28;20033;-70
2022/09/09 03:35:51;;;;;;;2.78;2.22;;;;;;;13.52;100.00;99232.75;4984205;28;20038;-70
2022/09/09 03:38:17;;;;;;;5.43;2.60;;;;;;;13.44;100.00;99215.94;5007690;28;20037;-70
2022/09/09 03:40:55;;;;;;;2.70;1.70;;;;;;;13.51;100.00;99240.22;4992473;28;20033;-71
2022/09/09 03:43:25;;;;;;;3.88;2.15;;;;;;;13.54;100.00;99242.31;5003253;28;20041;-71
2022/09/09 03:45:51;;;;;;;2.88;1.88;;;;;;;13.56;100.00;99239.25;4973302;28;20037;-70
2022/09/09 03:48:17;;;;;;;5.38;3.40;;;;;;;13.58;100.00;99242.47;4986145;28;20037;-74
2022/09/09 03:50:47;;;;;;;9.43;3.40;;;;;;;13.59;100.00;99233.13;4995414;28;20387;-70
2022/09/09 03:53:15;;;;;;;6.30;3.55;;;;;;;13.61;100.00;99242.69;5011936;28;20076;-70
2022/09/09 03:55:47;;;;;;;8.65;3.95;;;;;;;13.63;100.00;99245.13;5002112;28;20092;-69
2022/09/09 03:58:14;;;;;;;5.80;3.95;;;;;;;13.66;100.00;99244.47;4993153;28;20037;-70
2022/09/09 04:00:44;;;;;;;6.85;3.70;;;;;;;13.67;100.00;99246.09;5005503;28;20042;-69
2022/09/09 04:03:11;;;;;;;5.93;3.58;;;;;;;13.70;100.00;99250.97;4995280;28;20036;-70
2022/09/09 04:05:39;;;;;;;8.35;4.90;;;;;;;13.70;100.00;99245.47;5004637;28;20041;-69
2022/09/09 04:08:08;;;;;;;5.20;3.53;;;;;;;13.70;100.00;99237.22;5004178;28;20021;-70
2022/09/09 04:10:36;;;;;;;7.25;4.30;;;;;;;13.71;100.00;99247.09;5011613;28;20034;-70
2022/09/09 04:13:02;;;;;;;7.38;4.35;;;;;;;13.68;100.00;99242.25;4991301;28;20026;-70
2022/09/09 04:15:28;;;;;;;9.80;4.05;;;;;;;13.71;100.00;99252.59;5003638;28;20516;-72
2022/09/09 04:17:53;;;;;;;5.70;3.72;;;;;;;13.75;100.00;99264.56;4991916;28;20026;-70
2022/09/09 04:20:19;;;;;;;11.07;3.17;;;;;;;13.71;100.00;99252.59;4977973;28;20121;-70
2022/09/09 04:22:44;;;;;;;7.35;3.38;;;;;;;13.74;100.00;99249.22;5001587;28;20485;-70
2022/09/09 04:25:10;;;;;;;6.22;2.45;;;;;;;13.74;100.00;99246.47;4978043;28;20022;-71
2022/09/09 04:27:35;;;;;;;4.30;2.42;;;;;;;13.75;100.00;99248.06;5007297;28;20041;-71
2022/09/09 04:30:01;;;;;;;6.60;2.65;;;;;;;13.72;100.00;99242.41;4989046;28;20839;-71
2022/09/09 04:32:27;;;;;;;6.85;2.30;;;;;;;13.74;100.00;99257.47;5000068;28;20099;-70
2022/09/09 04:34:52;;;;;;;4.60;2.20;;;;;;;13.73;100.00;99255.81;5009875;28;20412;-71
2022/09/09 04:37:18;;;;;;;2.80;2.10;;;;;;;13.76;100.00;99265.38;4998816;28;20061;-70
2022/09/09 04:39:45;;;;;;;5.32;2.38;;;;;;;13.78;100.00;99263.94;5011076;28;20033;-70
2022/09/09 04:42:12;;;;;;;6.22;2.08;;;;;;;13.77;100.00;99262.31;5005715;28;20105;-72
2022/09/09 04:44:38;;;;;;;5.75;3.22;;;;;;;13.82;100.00;99257.81;5012114;28;20045;-71
2022/09/09 04:47:03;;;;;;;4.10;2.25;;;;;;;13.85;100.00;99266.22;4989673;28;20018;-70
2022/09/09 04:49:30;;;;;;;3.92;2.50;;;;;;;13.87;100.00;99265.91;5008837;28;20038;-70
2022/09/09 04:51:57;;;;;;;2.50;2.25;;;;;;;13.91;100.00;99270.44;4979964;28;20062;-71
2022/09/09 04:54:22;;;;;;;4.68;2.00;;;;;;;13.93;100.00;99264.63;5008604;28;20041;-71
2022/09/09 04:56:50;;;;;;;4.47;2.33;;;;;;;14.03;100.00;99286.38;4990837;28;20030;-69
2022/09/09 04:59:16;;;;;;;3.72;2.67;;;;;;;14.10;100.00;99289.44;5009300;28;20030;-70
2022/09/09 05:01:42;;;;;;;3.65;2.10;;;;;;;14.24;100.00;99288.56;5002087;28;20121;-71
2022/09/09 05:04:08;;;;;;;4.80;2.10;;;;;;;14.33;100.00;99289.38;5009295;28;20112;-71
2022/09/09 05:06:35;;;;;;;3.17;1.80;;;;;;;14.33;100.00;99294.88;4990164;28;20487;-71
2022/09/09 05:09:01;;;;;;;3.97;2.03;;;;;;;14.35;100.00;99284.34;5009631;28;20065;-70
2022/09/09 05:11:32;;;;;;;4.88;2.25;;;;;;;14.33;100.00;99292.13;4987011;28;20116;-70
2022/09/09 05:13:57;;;;;;;4.97;2.22;;;;;;;14.37;100.00;99300.53;4994764;28;20098;-70
2022/09/09 05:16:23;;;;;;;6.72;1.73;;;;;;;14.33;100.00;99305.88;5009125;28;20048;-71
2022/09/09 05:18:51;;;;;;;6.85;2.28;;;;;;;14.32;100.00;99304.25;5002805;28;20096;-69
2022/09/09 05:21:17;;;;;;;2.13;1.80;;;;;;;14.28;100.00;99311.50;4996014;28;20440;-70
2022/09/09 05:23:45;;;;;;;4.25;1.80;;;;;;;14.28;100.00;99309.59;5017775;28;20026;-70
2022/09/09 05:26:14;;;;;;;5.22;1.80;;;;;;;14.26;100.00;99313.78;4994389;28;20030;-72
2022/09/09 05:28:39;;;;;;;5.97;2.00;;;;;;;14.19;100.00;99308.72;5009111;28;20018;-71
2022/09/09 05:31:13;;;;;;;5.50;1.98;;;;;;;14.22;100.00;99321.03;5004190;28;20433;-71
2022/09/09 05:33:41;;;;;;;3.95;1.52;;;;;;;14.18;100.00;99320.03;5008557;28;20022;-70
2022/09/09 05:36:08;;;;;;;3.50;1.52;;;;;;;14.13;100.00;99324.56;5021332;28;20072;-71
2022/09/09 05:38:35;;;;;;;1.52;1.38;;;;;;;14.08;100.00;99327.44;5005696;28;20030;-71
2022/09/09 05:41:02;;;;;;;5.93;1.95;;;;;;;14.03;100.00;99329.53;5023597;28;20026;-70
2022/09/09 05:43:28;;;;;;;9.10;1.60;;;;;;;14.02;100.00;99333.38;4993595;28;20080;-72
2022/09/09 05:46:04;;;;;;;4.22;1.70;;;;;;;14.01;100.00;99332.59;5002140;28;20181;-70
2022/09/09 05:48:35;;;;;;;3.95;1.80;;;;;;;13.95;100.00;99329.16;5005937;28;20025;-69
2022/09/09 05:51:02;;;;;;;2.58;1.58;;;;;;;13.90;100.00;99331.22;5008530;28;20069;-69
2022/09/09 05:53:31;;;;;;;7.78;1.50;;;;;;;13.89;100.00;99340.63;5009284;28;20785;-71
2022/09/09 05:56:04;;;;;;;3.97;1.50;;;;;;;13.81;100.00;99338.63;4985858;28;20037;-70
2022/09/09 05:58:34;;;;;;;2.97;1.27;;;;;;;13.73;100.00;99341.00;5013172;28;20037;-70
2022/09/09 06:01:03;;;;;;;3.65;1.30;;;;;;;13.69;100.00;99342.75;4989079;28;20022;-74
2022/09/09 06:03:29;;;;;;;6.82;1.55;;;;;;;13.53;100.00;99333.28;5012255;28;20098;-75
2022/09/09 06:06:06;;;;;;;3.38;1.33;;;;;;;13.57;100.00;99348.00;4958549;28;20034;-73
2022/09/09 06:08:32;;;;;;;2.63;1.25;;;;;;;13.52;100.00;99346.19;5011356;28;20048;-71
2022/09/09 06:11:03;;;;;;;6.68;1.20;;;;;;;13.48;100.00;99358.09;4990575;28;20034;-71
2022/09/09 06:13:30;;;;;;;2.67;1.13;;;;;;;13.43;100.00;99351.63;4983384;28;20403;-70
2022/09/09 06:15:55;;;;;;;4.40;1.23;;;;;;;13.42;100.00;99355.47;4997376;28;20435;-70
2022/09/09 06:18:21;;;;;;;6.80;1.23;;;;;;;13.46;100.00;99360.34;5007768;28;20030;-70
2022/09/09 06:21:00;;;;;;;1.48;0.77;;;;;;;13.47;100.00;99368.28;4983709;28;20052;-70
2022/09/09 06:23:26;;;;;;;4.45;1.27;;;;;;;13.54;100.00;99367.84;4992565;28;20076;-70
2022/09/09 06:26:17;;;;;;;7.13;1.00;;;;;;;13.59;100.00;99370.47;4971030;28;20021;-70
2022/09/09 06:28:45;;;;;;;5.75;1.13;;;;;;;13.56;100.00;99365.59;5007428;28;20033;-70
2022/09/09 06:31:12;;;;;;;2.95;0.82;;;;;;;13.54;100.00;99374.16;5007111;28;20029;-70
2022/09/09 06:33:40;;;;;;;3.17;0.73;;;;;;;13.56;100.00;99368.34;4986953;28;20045;-70
2022/09/09 06:36:10;;;;;;;6.63;1.02;;;;;;;13.60;100.00;99369.34;5005107;28;20029;-70
2022/09/09 06:38:36;;;;;;;3.85;0.80;;;;;;;13.62;100.00;99383.56;4980388;28;20439;-70
2022/09/09 06:41:01;;;;;;;3.22;0.85;;;;;;;13.65;100.00;99382.94;4995193;28;20058;-70
2022/09/09 06:43:28;;;;;;;4.22;0.85;;;;;;;13.63;100.00;99387.16;4985226;28;20786;-69
2022/09/09 06:46:02;;;;;;;2.78;0.70;;;;;;;13.67;100.00;99386.22;4988542;28;20117;-73
2022/09/09 06:48:28;;;;;;;1.17;0.70;;;;;;;13.71;100.00;99389.97;4993204;28;20037;-71
2022/09/09 06:51:04;;;;;;;5.22;0.90;;;;;;;13.74;100.00;99388.50;4978703;28;20105;-71
2022/09/09 06:53:30;;;;;;;2.45;1.05;;;;;;;13.77;100.00;99391.44;5002375;28;20494;-70
2022/09/09 06:55:55;;;;;;;2.15;0.88;;;;;;;13.77;100.00;99377.72;5002526;28;20129;-71
2022/09/09 06:58:24;;;;;;;9.60;0.82;;;;;;;13.84;100.00;99387.44;5005865;28;20038;-70
2022/09/09 07:00:49;;;;;;;3.85;0.73;;;;;;;13.94;100.00;99398.19;5003135;28;20056;-73
2022/09/09 07:03:15;;;;;;;6.10;0.95;;;;;;;14.04;100.00;99400.66;5005384;28;20029;-71
2022/09/09 07:05:40;;;;;;;1.80;0.73;;;;;;;14.09;100.00;99395.06;4989901;28;20077;-70
2022/09/09 07:08:05;;;;;;;2.17;0.60;;;;;;;14.16;100.00;99399.28;5006181;28;20030;-71
2022/09/09 07:10:31;;;;;;;4.57;0.90;;;;;;;14.20;100.00;99400.28;5002629;28;20034;-70
2022/09/09 07:12:57;;;;;;;4.40;1.00;;;;;;;14.24;100.00;99406.78;4989818;28;20474;-69
2022/09/09 07:15:22;;;;;;;3.65;0.70;;;;;;;14.24;100.00;99401.28;5004789;28;20034;-73
2022/09/09 07:17:48;;;;;;;1.83;0.70;;;;;;;14.30;100.00;99402.75;4999231;28;20037;-71
2022/09/09 07:20:14;;;;;;;2.63;0.73;;;;;;;14.41;100.00;99411.53;5004674;28;20030;-70
2022/09/09 07:22:40;;;;;;;2.17;0.70;;;;;;;14.44;100.00;99419.97;4988378;28;20836;-70
2022/09/09 07:25:06;;;;;;;1.70;0.85;;;;;;;14.51;99.99;99415.97;4999978;28;20026;-71
2022/09/09 07:27:32;;;;;;;2.50;0.77;;;;;;;14.59;100.00;99423.44;4985745;28;20082;-72
2022/09/09 07:29:57;;;;;;;6.75;1.30;;;;;;;14.65;100.00;99413.94;4993690;28;20099;-73
2022/09/09 07:32:23;;;;;;;5.07;0.80;;;;;;;14.73;100.00;99418.66;5010196;28;20029;-72
2022/09/09 07:34:50;;;;;;;3.85;1.48;;;;;;;14.90;100.00;99428.13;5002376;28;20035;-71
2022/09/09 07:37:15;;;;;;;6.43;1.08;;;;;;;15.01;100.00;99426.69;5002382;28;20047;-70
2022/09/09 07:39:41;;;;;;;6.00;1.15;;;;;;;15.13;100.00;99437.88;4985493;28;20444;-70
2022/09/09 07:42:09;;;;;;;9.00;1.35;;;;;;;15.35;100.00;99425.13;5002976;28;20081;-71
2022/09/09 07:44:35;;;;;;;2.63;1.13;;;;;;;15.59;98.79;99432.91;5000380;28;20666;-71
2022/09/09 07:47:02;;;;;;;5.82;1.30;;;;;;;15.84;97.61;99439.59;4996648;28;20030;-77
2022/09/09 07:49:28;;;;;;;5.28;1.63;;;;;;;16.11;95.88;99440.38;5003032;28;20033;-72
2022/09/09 07:51:53;;;;;;;7.22;1.17;;;;;;;16.37;93.06;99447.78;4998595;28;20061;-72
2022/09/09 07:54:20;;;;;;;4.60;1.00;;;;;;;16.62;91.45;99448.00;5012429;28;20034;-72
2022/09/09 07:56:46;;;;;;;2.58;1.08;;;;;;;16.54;91.77;99444.97;5008090;28;20026;-71
2022/09/09 07:59:13;;;;;;;4.97;1.08;;;;;;;16.24;93.00;99452.38;5007444;28;20029;-71
2022/09/09 08:01:45;;;;;;;4.28;1.35;;;;;;;16.06;95.09;99454.31;5004404;28;20038;-72
2022/09/09 08:04:16;;;;;;;3.97;0.98;;;;;;;15.96;94.21;99457.41;5002261;28;20036;-72
2022/09/09 08:06:46;;;;;;;1.67;0.93;;;;;;;16.07;95.96;99463.41;4987704;28;20140;-71
2022/09/09 08:09:12;;;;;;;2.03;0.82;;;;;;;16.71;94.74;99460.66;4991148;28;20033;-72
2022/09/09 08:11:39;;;;;;;5.30;1.38;;;;;;;17.84;90.46;99463.88;4988851;28;20488;-72
2022/09/09 08:14:07;;;;;;;5.35;1.10;;;;;;;18.79;84.18;99466.03;4986288;28;20026;-72
2022/09/09 08:16:36;;;;;;;3.85;1.08;;;;;;;19.36;81.58;99479.00;4993467;28;20369;-71
2022/09/09 08:19:03;;;;;;;4.97;1.20;;;;;;;19.88;79.42;99471.06;4997436;28;20133;-73
2022/09/09 08:21:31;;;;;;;4.32;0.75;;;;;;;20.23;76.21;99459.34;4998042;28;20069;-71
2022/09/09 08:23:58;;;;;;;4.82;0.82;;;;;;;20.59;74.38;99474.19;5012329;28;20021;-73
2022/09/09 08:26:29;;;;;;;3.97;0.90;;;;;;;21.08;74.12;99482.22;5007012;28;20338;-72
2022/09/09 08:28:58;;;;;;;3.30;0.98;;;;;;;21.22;72.14;99483.72;4995485;28;20040;-71
2022/09/09 08:31:29;;;;;;;3.97;0.90;;;;;;;21.75;71.21;99484.13;4995917;28;20034;-72
2022/09/09 08:33:56;;;;;;;1.25;0.70;;;;;;;22.04;67.53;99476.38;5013535;28;20018;-71
2022/09/09 08:36:23;;;;;;;2.53;0.82;;;;;;;21.42;69.72;99484.56;5004532;28;20034;-72
2022/09/09 08:38:50;;;;;;;4.15;1.08;;;;;;;21.17;70.58;99479.22;4991143;28;20022;-71
2022/09/09 08:41:38;;;;;;;2.03;0.80;;;;;;;22.33;69.70;99502.06;4978322;28;20029;-72
2022/09/09 08:44:14;;;;;;;1.67;0.55;;;;;;;23.84;67.99;99490.56;5000473;28;20430;-72
2022/09/09 08:47:01;;;;;;;2.20;0.47;;;;;;;24.51;61.81;99488.97;4998290;28;20420;-71
2022/09/09 08:49:33;;;;;;;1.45;0.60;;;;;;;22.29;66.39;99501.13;4998055;28;20037;-72
2022/09/09 08:51:59;;;;;;;2.25;0.70;;;;;;;20.91;68.71;99482.59;5009891;28;20053;-72
2022/09/09 08:54:32;;;;;;;2.22;0.63;;;;;;;19.92;69.37;99501.66;4999110;28;20084;-72
2022/09/09 08:56:58;;;;;;;3.20;0.52;;;;;;;18.97;74.19;99506.25;5009862;28;20033;-73
2022/09/09 08:59:23;;;;;;;2.10;0.65;;;;;;;18.44;76.75;99510.72;5010257;28;20113;-72
2022/09/09 09:02:07;;;;;;;2.25;0.70;;;;;;;18.22;79.09;99509.16;4978901;28;20041;-73
2022/09/09 09:05:05;;;;;;;2.55;0.93;;;;;;;18.21;79.56;99513.88;5011347;28;20030;-72
2022/09/09 09:07:52;;;;;;;2.80;0.80;;;;;;;18.38;79.32;99523.16;4997940;28;20041;-73
2022/09/09 09:10:49;;;;;;;2.17;0.60;;;;;;;18.54;79.76;99521.38;4995444;28;20026;-73
2022/09/09 09:13:21;;;;;;;6.40;0.77;;;;;;;18.76;80.38;99522.13;5005585;28;20045;-73
2022/09/09 09:15:53;;;;;;;2.67;0.52;;;;;;;19.03;79.89;99531.78;4992592;28;20022;-72
2022/09/09 09:18:19;;;;;;;1.38;0.30;;;;;;;19.11;75.85;99530.03;5012690;28;20092;-72
2022/09/09 09:21:04;;;;;;;2.80;0.38;;;;;;;19.14;75.71;99534.91;5009976;28;20030;-74
2022/09/09 09:23:35;;;;;;;;;;;;;;;19.29;71.51;99533.38;4993188;28;20601;-73
2022/09/09 09:26:01;;;;;;;4.45;0.40;;;;;;;19.59;76.24;99544.25;4999049;28;19913;-73
2022/09/09 09:28:32;;;;;;;2.58;0.57;;;;;;;20.14;75.54;99545.53;4987187;28;20045;-72
2022/09/09 09:31:06;;;;;;;0.57;0.40;;;;;;;20.30;77.35;99548.38;4976696;28;20034;-73
2022/09/09 09:33:31;;;;;;;1.85;0.60;;;;;;;20.15;75.96;99549.94;4990250;28;21071;-71
2022/09/09 09:35:59;;;;;;;3.88;0.70;;;;;;;19.84;78.56;99551.41;4997892;28;20030;-75
2022/09/09 09:38:28;;;;;;;2.28;0.50;;;;;;;19.70;76.75;99560.06;5009043;28;20435;-75
2022/09/09 09:41:00;;;;;;;3.55;0.55;;;;;;;19.57;74.65;99566.78;5008015;28;20109;-70
2022/09/09 09:43:36;;;;;;;3.97;0.65;;;;;;;19.26;75.78;99562.63;4992143;28;20053;-72
2022/09/09 09:46:05;;;;;;;2.55;0.88;;;;;;;18.72;77.55;99562.72;5010997;28;20045;-72
2022/09/09 09:48:32;;;;;;;3.80;0.70;;;;;;;18.44;79.68;99555.84;5013385;28;20033;-72
2022/09/09 09:51:00;;;;;;;3.42;0.73;;;;;;;18.29;80.26;99568.31;4993031;28;20026;-72
2022/09/09 09:53:38;;;;;;;3.03;0.60;;;;;;;18.09;81.17;99560.84;5004298;28;20049;-72
2022/09/09 09:56:09;;;;;;;4.15;1.10;;;;;;;18.23;82.64;99578.00;4992948;28;20026;-72
2022/09/09 09:58:44;;;;;;;6.03;0.68;;;;;;;18.48;78.66;99586.41;4994467;28;20022;-72
2022/09/09 10:01:33;;;;;;;3.00;0.80;;;;;;;18.53;80.08;99588.97;5007264;28;20434;-73
2022/09/09 10:04:25;;;;;;;3.47;0.57;;;;;;;18.64;80.47;99589.34;5011419;28;20030;-74
2022/09/09 10:06:51;;;;;;;3.72;0.80;;;;;;;18.86;79.67;99593.72;4981904;28;20018;-72
2022/09/09 10:09:22;;;;;;;2.03;0.88;;;;;;;18.90;76.49;99600.19;4995181;28;20036;-74
2022/09/09 10:12:18;;;;;;;2.40;0.85;;;;;;;19.05;79.90;99595.16;5003463;28;20506;-73
2022/09/09 10:15:05;;;;;;;0.85;0.40;;;;;;;19.21;78.31;99592.53;5007823;28;20027;-79
2022/09/09 10:17:50;;;;;;;3.38;1.02;;;;;;;19.07;77.15;99601.97;5007137;28;20963;-72
2022/09/09 10:20:44;;;;;;;0.47;0.45;;;;;;;19.09;80.15;99609.94;5003609;28;20026;-73
2022/09/09 10:23:43;;;;;;;4.00;0.95;;;;;;;19.29;80.21;99597.97;4994251;28;20395;-72
2022/09/09 10:26:43;;;;;;;4.50;0.88;;;;;;;19.13;80.76;99613.66;4995770;28;20099;-72
2022/09/09 10:29:38;;;;;;;2.13;1.25;;;;;;;18.89;79.04;99606.88;4988825;28;20113;-71
2022/09/09 10:32:23;;;;;;;3.67;0.60;;;;;;;18.80;78.55;99600.59;4995059;28;20694;-72
2022/09/09 10:34:56;;;;;;;3.78;0.82;;;;;;;18.71;81.39;99614.53;4997939;28;20026;-72
2022/09/09 10:37:33;;;;;;;2.25;0.77;;;;;;;18.87;80.11;99611.16;5009765;28;20542;-73
2022/09/09 10:40:20;;;;;;;1.15;0.60;;;;;;;19.36;82.17;99614.84;5008845;28;20428;-73
2022/09/09 10:42:46;;;;;;;4.72;1.08;;;;;;;20.52;79.09;99622.00;4987483;28;20057;-72
2022/09/09 10:45:34;;;;;;;3.58;0.70;;;;;;;21.50;75.81;99619.84;4973002;28;20030;-74
2022/09/09 10:48:20;;;;;;;2.35;0.50;;;;;;;22.42;67.88;99625.16;4993227;28;20566;-74
2022/09/09 10:51:03;;;;;;;3.08;0.82;;;;;;;21.57;71.77;99625.63;4969851;28;20198;-73
2022/09/09 10:53:37;;;;;;;2.42;0.80;;;;;;;21.19;77.17;99629.00;4969155;28;20124;-74
2022/09/09 10:56:23;;;;;;;0.65;0.38;;;;;;;20.74;74.78;99620.66;4990355;28;20018;-73
2022/09/09 10:59:06;;;;;;;7.10;0.60;;;;;;;20.21;75.47;99626.25;4964965;28;20058;-74
2022/09/09 11:01:40;;;;;;;1.55;0.30;;;;;;;20.10;78.28;99615.97;4994475;28;20446;-75
2022/09/09 11:04:13;;;;;;;2.20;0.40;;;;;;;20.00;75.98;99643.03;4995072;28;20023;-74
2022/09/09 11:06:47;;;;;;;2.70;0.80;;;;;;;19.47;78.30;99644.88;4990994;28;20165;-73
2022/09/09 11:09:19;;;;;;;4.20;0.88;;;;;;;19.07;80.65;99640.78;4972130;28;20022;-74
2022/09/09 11:11:54;;;;;;;1.23;0.40;;;;;;;18.88;82.88;99643.22;4979639;28;20060;-74
2022/09/09 11:14:43;;;;;;;3.08;0.65;;;;;;;18.62;83.61;99634.00;4977662;28;20029;-73
2022/09/09 11:17:14;;;;;;;0.85;0.50;;;;;;;18.63;83.51;99635.63;4973444;28;20026;-73
2022/09/09 11:19:43;;;;;;;1.13;0.30;;;;;;;19.35;85.40;99642.91;4995742;28;20021;-73
2022/09/09 11:22:23;;;;;;;0.73;0.28;;;;;;;20.48;79.19;99645.25;4974084;28;20472;-73
2022/09/09 11:25:09;;;;;;;1.25;0.10;;;;;;;20.82;73.42;99656.97;4998458;28;20038;-72
2022/09/09 11:28:09;;;;;;;1.15;0.30;;;;;;;22.22;72.14;99656.91;4986438;28;20043;-72
2022/09/09 11:31:09;;;;;;;0.60;0.30;;;;;;;25.86;74.85;99659.66;4974729;28;20027;-76
2022/09/09 11:33:49;;;;;;;3.45;1.30;;;;;;;27.51;60.18;99659.59;4994939;28;20030;-73
2022/09/09 11:36:49;;;;;;;1.15;0.30;;;;;;;27.53;63.05;99657.19;4976415;28;20142;-74
2022/09/09 11:39:30;;;;;;;0.35;0.30;;;;;;;27.33;56.48;99660.38;4988797;28;20030;-73
2022/09/09 11:42:07;;;;;;;1.02;0.28;;;;;;;25.83;62.37;99666.84;4990229;28;20114;-72
2022/09/09 11:44:33;;;;;;;0.25;0.17;;;;;;;25.13;64.42;99662.97;4984586;28;20026;-73
2022/09/09 11:46:58;;;;;;;2.28;0.57;;;;;;;24.76;63.33;99672.94;4965450;28;20102;-73
2022/09/09 11:49:39;;;;;;;2.13;0.30;;;;;;;24.40;63.81;99656.50;4978343;28;20029;-72
2022/09/09 11:52:42;;;;;;;1.40;0.30;;;;;;;23.26;67.66;99661.06;4988852;28;20053;-72